Time;durP1;ratioP1;P1;durP2;ratioP2;P2;SDS_P1;SDS_P2;PMS_P1;PMS_P2;Temp;Humidity;BMP_temperature;BMP_pressure;BME280_temperature;BME280_humidity;BME280_pressure;Samples;Min_cycle;Max_cycle;Signal;HPM_P1;HPM_P2
2023/07/10 00:01:59;;;;;;;0.40;0.20;;;;;;;21.76;74.59;95760.31;5094838;28;20928;-60
2023/07/10 00:04:29;;;;;;;0.50;0.30;;;;;;;21.59;75.21;95765.03;5094856;28;20507;-60
2023/07/10 00:06:57;;;;;;;0.63;0.30;;;;;;;21.51;76.18;95764.78;5094307;28;20437;-60
2023/07/10 00:09:27;;;;;;;0.80;0.70;;;;;;;20.92;79.42;95765.88;5094580;28;20500;-61
2023/07/10 00:11:55;;;;;;;0.80;0.77;;;;;;;21.21;78.43;95771.31;5094431;28;20470;-61
2023/07/10 00:14:25;;;;;;;0.67;0.63;;;;;;;21.33;78.33;95770.59;5094867;28;20491;-61
2023/07/10 00:16:54;;;;;;;0.50;0.30;;;;;;;21.10;79.54;95770.06;5094500;28;20444;-61
2023/07/10 00:19:22;;;;;;;0.40;0.30;;;;;;;21.05;79.99;95772.16;5094416;28;20497;-61
2023/07/10 00:21:51;;;;;;;0.50;0.40;;;;;;;21.27;78.30;95769.22;5094229;28;20433;-61
2023/07/10 00:24:20;;;;;;;0.47;0.33;;;;;;;20.69;81.07;95776.09;5094353;28;20437;-61
2023/07/10 00:26:49;;;;;;;0.60;0.60;;;;;;;20.92;79.85;95758.56;5068328;28;20984;-62
2023/07/10 00:29:23;;;;;;;0.40;0.30;;;;;;;21.12;79.90;95767.88;5094481;28;20895;-62
2023/07/10 00:31:51;;;;;;;0.57;0.43;;;;;;;21.18;79.30;95773.84;5094779;28;20476;-61
2023/07/10 00:34:25;;;;;;;0.57;0.30;;;;;;;21.21;78.47;95765.91;5095488;28;20486;-61
2023/07/10 00:36:54;;;;;;;0.50;0.30;;;;;;;20.84;81.24;95767.50;5107396;28;20433;-62
2023/07/10 00:39:24;;;;;;;0.50;0.30;;;;;;;20.65;84.43;95766.25;5093802;28;20979;-62
2023/07/10 00:41:58;;;;;;;1.43;0.30;;;;;;;20.67;83.15;95762.13;5094105;28;20440;-62
2023/07/10 00:44:32;;;;;;;0.93;0.93;;;;;;;20.51;85.28;95773.75;5093819;28;20466;-61
2023/07/10 00:47:05;;;;;;;0.90;0.40;;;;;;;20.61;86.36;95773.41;5093307;28;20561;-59
2023/07/10 00:49:43;;;;;;;0.73;0.63;;;;;;;20.63;86.35;95774.69;5093865;28;20440;-61
2023/07/10 00:52:17;;;;;;;0.40;0.30;;;;;;;20.82;85.38;95779.69;5090881;28;20484;-61
2023/07/10 00:54:49;;;;;;;0.50;0.30;;;;;;;20.35;86.63;95726.91;5084460;28;20428;-61
2023/07/10 00:57:23;;;;;;;0.40;0.20;;;;;;;20.91;83.60;95775.06;5093706;28;20445;-62
2023/07/10 00:59:52;;;;;;;0.40;0.20;;;;;;;20.49;82.51;95704.06;5093589;28;20480;-62
2023/07/10 01:02:24;;;;;;;0.47;0.30;;;;;;;20.96;81.27;95766.78;5093644;28;20441;-61
2023/07/10 01:04:57;;;;;;;0.40;0.30;;;;;;;20.96;80.79;95779.47;5093654;28;20877;-60
2023/07/10 01:07:28;;;;;;;6.50;0.63;;;;;;;20.93;81.34;95770.13;5093271;28;20486;-62
2023/07/10 01:09:59;;;;;;;0.40;0.30;;;;;;;20.36;86.61;95788.53;5093488;28;20449;-62
2023/07/10 01:12:30;;;;;;;0.40;0.37;;;;;;;20.34;88.01;95785.34;5093247;28;20496;-63
2023/07/10 01:14:59;;;;;;;0.43;0.27;;;;;;;20.51;85.76;95785.34;5093322;28;20429;-62
2023/07/10 01:17:29;;;;;;;0.50;0.30;;;;;;;20.69;84.70;95788.78;5093709;28;20465;-63
2023/07/10 01:20:01;;;;;;;0.50;0.40;;;;;;;20.78;83.62;95786.81;5093172;28;20515;-62
2023/07/10 01:22:30;;;;;;;0.70;0.57;;;;;;;20.62;84.97;95781.16;5093391;28;20440;-62
2023/07/10 01:24:59;;;;;;;0.50;0.30;;;;;;;20.82;84.10;95790.47;5092507;28;20433;-63
2023/07/10 01:27:29;;;;;;;0.63;0.33;;;;;;;20.76;83.94;95797.13;5091717;28;20448;-64
2023/07/10 01:30:01;;;;;;;0.70;0.40;;;;;;;20.76;85.08;95789.06;5092455;28;20494;-63
2023/07/10 01:32:31;;;;;;;0.50;0.30;;;;;;;20.73;85.55;95795.09;5092803;28;20529;-62
2023/07/10 01:35:04;;;;;;;0.47;0.30;;;;;;;20.73;85.03;95792.38;5092846;28;20520;-64
2023/07/10 01:37:34;;;;;;;0.40;0.30;;;;;;;20.71;84.89;95795.41;5092830;28;20443;-64
2023/07/10 01:40:02;;;;;;;0.40;0.30;;;;;;;20.68;84.86;95793.38;5093060;28;20470;-64
2023/07/10 01:42:31;;;;;;;8.70;0.50;;;;;;;20.62;86.25;95801.91;5092802;28;20441;-63
2023/07/10 01:44:59;;;;;;;0.60;0.40;;;;;;;20.46;86.39;95804.34;5092813;28;20432;-62
2023/07/10 01:47:28;;;;;;;0.60;0.50;;;;;;;20.43;87.08;95796.09;5092590;28;20433;-63
2023/07/10 01:49:58;;;;;;;0.50;0.37;;;;;;;20.36;88.46;95801.19;5092802;28;20445;-63
2023/07/10 01:52:27;;;;;;;0.70;0.60;;;;;;;20.46;86.79;95798.97;5092040;28;20502;-63
2023/07/10 01:54:57;;;;;;;0.60;0.57;;;;;;;20.15;89.03;95780.28;5093035;28;20441;-64
2023/07/10 01:57:26;;;;;;;0.50;0.30;;;;;;;20.13;88.89;95800.56;5091603;28;20437;-64
2023/07/10 01:59:55;;;;;;;0.57;0.53;;;;;;;20.34;86.21;95801.50;5091407;28;20472;-64
2023/07/10 02:02:23;;;;;;;0.50;0.30;;;;;;;20.06;89.87;95802.94;5092547;28;20464;-63
2023/07/10 02:04:52;;;;;;;0.50;0.40;;;;;;;20.06;90.13;95795.63;5092644;28;20452;-63
2023/07/10 02:07:21;;;;;;;0.50;0.30;;;;;;;20.07;89.45;95791.03;5092270;28;21014;-63
2023/07/10 02:09:49;;;;;;;0.40;0.30;;;;;;;20.15;89.04;95791.03;5092148;28;20468;-63
2023/07/10 02:12:18;;;;;;;0.50;0.40;;;;;;;20.15;90.50;95788.34;5092597;28;20484;-63
2023/07/10 02:14:47;;;;;;;0.50;0.40;;;;;;;20.24;89.39;95797.22;5091820;28;20441;-64
2023/07/10 02:17:15;;;;;;;0.50;0.40;;;;;;;19.89;92.17;95795.63;5092102;28;20444;-63
2023/07/10 02:19:44;;;;;;;0.40;0.30;;;;;;;19.95;90.03;95794.38;5078648;28;20465;-64
2023/07/10 02:22:12;;;;;;;2.30;0.93;;;;;;;20.09;89.48;95800.38;5091756;28;20441;-64
2023/07/10 02:24:41;;;;;;;0.40;0.30;;;;;;;20.17;88.50;95796.09;5091883;28;20915;-64
2023/07/10 02:27:10;;;;;;;0.60;0.50;;;;;;;20.10;89.26;95801.19;5092118;28;20472;-65
2023/07/10 02:29:40;;;;;;;0.40;0.30;;;;;;;20.08;88.68;95804.19;5091598;28;20519;-64
2023/07/10 02:32:09;;;;;;;0.40;0.30;;;;;;;19.68;88.57;95745.47;5091950;28;20488;-65
2023/07/10 02:34:37;;;;;;;0.50;0.40;;;;;;;20.06;87.79;95794.84;5090785;28;20441;-64
2023/07/10 02:37:06;;;;;;;0.40;0.30;;;;;;;20.17;87.37;95815.75;5091867;28;20482;-64
2023/07/10 02:39:34;;;;;;;0.60;0.30;;;;;;;20.08;89.17;95814.97;5091664;28;20494;-64
2023/07/10 02:42:02;;;;;;;0.40;0.30;;;;;;;19.75;91.52;95816.53;5091510;28;20829;-64
2023/07/10 02:44:32;;;;;;;0.40;0.30;;;;;;;19.82;91.22;95814.16;5091603;28;20432;-65
2023/07/10 02:47:02;;;;;;;0.47;0.30;;;;;;;19.43;95.58;95815.03;5100852;28;20447;-65
2023/07/10 02:49:30;;;;;;;0.50;0.40;;;;;;;19.08;100.00;95817.88;5106227;28;20468;-64
2023/07/10 02:51:58;;;;;;;0.57;0.40;;;;;;;18.82;100.00;95807.81;5091180;28;20473;-64
2023/07/10 02:54:27;;;;;;;0.60;0.60;;;;;;;19.06;100.00;95826.25;5091484;28;20447;-64
2023/07/10 02:56:56;;;;;;;0.40;0.30;;;;;;;19.18;98.55;95813.03;5091634;28;20437;-64
2023/07/10 02:59:27;;;;;;;0.50;0.30;;;;;;;19.55;95.00;95812.53;5091444;28;20472;-64
2023/07/10 03:01:56;;;;;;;0.60;0.30;;;;;;;19.80;93.76;95824.44;5091870;28;20433;-65
2023/07/10 03:04:25;;;;;;;0.40;0.30;;;;;;;19.72;94.35;95803.69;5091832;28;20498;-65
2023/07/10 03:06:54;;;;;;;1.20;0.40;;;;;;;19.90;91.55;95823.34;5091261;28;20489;-64
2023/07/10 03:09:22;;;;;;;0.60;0.50;;;;;;;19.88;92.17;95823.66;5091414;28;20436;-65
2023/07/10 03:11:50;;;;;;;0.50;0.30;;;;;;;19.70;93.34;95813.97;5093721;28;20596;-65
2023/07/10 03:14:19;;;;;;;0.70;0.43;;;;;;;19.63;92.21;95814.44;5096226;28;20441;-65
2023/07/10 03:16:48;;;;;;;0.47;0.30;;;;;;;19.73;91.41;95824.13;5096011;28;20512;-64
2023/07/10 03:19:16;;;;;;;0.40;0.30;;;;;;;19.56;93.75;95829.44;5095748;28;20446;-65
2023/07/10 03:21:46;;;;;;;0.53;0.40;;;;;;;19.60;94.93;95823.16;5095510;28;20479;-65
2023/07/10 03:24:14;;;;;;;0.47;0.27;;;;;;;19.57;95.36;95829.16;5095500;28;20440;-65
2023/07/10 03:26:43;;;;;;;0.40;0.30;;;;;;;19.63;94.87;95819.81;5095246;28;20432;-65
2023/07/10 03:29:13;;;;;;;0.57;0.40;;;;;;;19.73;92.76;95815.25;5095822;28;20810;-64
2023/07/10 03:31:42;;;;;;;0.40;0.30;;;;;;;19.84;93.59;95819.19;5095827;28;20498;-64
2023/07/10 03:34:12;;;;;;;0.40;0.20;;;;;;;19.91;91.85;95825.69;5094773;28;20441;-64
2023/07/10 03:36:41;;;;;;;0.57;0.27;;;;;;;19.98;91.81;95820.66;5095515;28;20460;-64
2023/07/10 03:39:12;;;;;;;0.40;0.30;;;;;;;20.01;91.29;95811.94;5094927;28;20513;-64
2023/07/10 03:41:41;;;;;;;0.50;0.30;;;;;;;20.09;91.06;95823.81;5095362;28;20445;-63
2023/07/10 03:44:10;;;;;;;1.13;0.40;;;;;;;19.66;91.08;95774.59;5095158;28;20869;-63
2023/07/10 03:46:39;;;;;;;0.57;0.40;;;;;;;20.06;91.01;95841.38;5095077;28;20948;-65
2023/07/10 03:49:07;;;;;;;0.50;0.30;;;;;;;20.19;89.06;95842.31;5095343;28;20443;-63
2023/07/10 03:51:36;;;;;;;0.40;0.30;;;;;;;20.10;89.59;95846.94;5095348;28;20444;-63
2023/07/10 03:54:05;;;;;;;0.50;0.40;;;;;;;20.07;91.28;95848.34;5094659;28;20975;-63
2023/07/10 03:56:35;;;;;;;0.50;0.33;;;;;;;19.60;97.52;95835.78;5094791;28;20441;-63
2023/07/10 03:59:03;;;;;;;0.50;0.50;;;;;;;19.29;100.00;95854.66;5094479;28;20578;-62
2023/07/10 04:01:32;;;;;;;0.60;0.60;;;;;;;19.17;100.00;95865.19;5094760;28;20437;-67
2023/07/10 04:04:00;;;;;;;0.50;0.43;;;;;;;19.49;100.00;95869.44;5094558;28;20527;-65
2023/07/10 04:06:29;;;;;;;0.50;0.30;;;;;;;19.21;100.00;95862.66;5095120;28;20437;-64
2023/07/10 04:09:00;;;;;;;0.50;0.50;;;;;;;19.10;100.00;95867.50;5068888;28;20440;-64
2023/07/10 04:11:28;;;;;;;0.40;0.30;;;;;;;19.21;100.00;95873.41;5094256;28;20506;-64
2023/07/10 04:13:58;;;;;;;0.50;0.30;;;;;;;19.54;100.00;95869.31;5094591;28;20608;-65
2023/07/10 04:16:28;;;;;;;0.50;0.43;;;;;;;19.84;100.00;95879.19;5094692;28;20437;-63
2023/07/10 04:18:57;;;;;;;0.40;0.30;;;;;;;19.88;98.89;95882.84;5094654;28;20441;-63
2023/07/10 04:21:28;;;;;;;0.50;0.30;;;;;;;19.70;100.00;95878.53;5093952;28;20433;-63
2023/07/10 04:23:57;;;;;;;0.40;0.30;;;;;;;19.85;99.94;95896.13;5094568;28;20444;-63
2023/07/10 04:26:27;;;;;;;0.50;0.40;;;;;;;20.17;95.71;95880.34;5093941;28;20437;-62
2023/07/10 04:28:59;;;;;;;0.57;0.33;;;;;;;20.28;93.81;95875.47;5093893;28;20518;-63
2023/07/10 04:31:27;;;;;;;0.40;0.27;;;;;;;20.37;91.91;95873.56;5093306;28;20433;-62
2023/07/10 04:33:57;;;;;;;0.60;0.37;;;;;;;20.33;93.02;95880.69;5093855;28;20512;-62
2023/07/10 04:36:26;;;;;;;0.47;0.40;;;;;;;20.07;94.34;95874.47;5067962;28;20440;-61
2023/07/10 04:38:54;;;;;;;0.50;0.30;;;;;;;20.11;93.94;95878.13;5093670;28;20962;-60
2023/07/10 04:41:25;;;;;;;0.57;0.40;;;;;;;20.14;95.53;95867.50;5093848;28;20437;-60
2023/07/10 04:43:53;;;;;;;0.50;0.40;;;;;;;20.16;97.59;95873.34;5093398;28;20469;-60
2023/07/10 04:46:22;;;;;;;0.70;0.50;;;;;;;20.60;92.19;95872.28;5094079;28;20829;-60
2023/07/10 04:48:51;;;;;;;0.73;0.40;;;;;;;20.57;92.62;95883.69;5093533;28;20506;-60
2023/07/10 04:51:21;;;;;;;0.47;0.33;;;;;;;20.50;91.24;95831.41;5093677;28;20443;-60
2023/07/10 04:53:49;;;;;;;0.77;0.77;;;;;;;20.88;89.57;95881.59;5093520;28;20992;-59
2023/07/10 04:56:19;;;;;;;2.97;0.50;;;;;;;21.05;89.05;95878.03;5094030;28;20783;-60
2023/07/10 04:58:51;;;;;;;0.50;0.30;;;;;;;20.94;90.08;95876.81;5093147;28;20483;-60
2023/07/10 05:01:23;;;;;;;0.40;0.30;;;;;;;21.24;87.82;95885.78;5093898;28;20437;-59
2023/07/10 05:03:51;;;;;;;1.17;1.07;;;;;;;20.86;88.78;95883.81;5093793;28;20435;-58
2023/07/10 05:06:20;;;;;;;5.07;0.77;;;;;;;20.75;90.61;95862.91;5093664;28;20883;-60
2023/07/10 05:08:49;;;;;;;1.57;1.10;;;;;;;20.78;93.12;95876.53;5093437;28;20445;-59
2023/07/10 05:11:17;;;;;;;1.90;0.53;;;;;;;20.81;94.23;95875.09;5093509;28;20490;-59
2023/07/10 05:13:45;;;;;;;1.30;1.20;;;;;;;20.90;91.24;95873.16;5093130;28;20504;-59
2023/07/10 05:16:15;;;;;;;1.37;0.70;;;;;;;21.28;87.17;95879.44;5093311;28;20468;-59
2023/07/10 05:18:44;;;;;;;0.73;0.70;;;;;;;21.33;88.05;95873.84;5067647;28;20437;-59
2023/07/10 05:21:13;;;;;;;0.60;0.60;;;;;;;21.67;84.90;95875.63;5093569;28;20464;-60
2023/07/10 05:23:41;;;;;;;0.60;0.60;;;;;;;21.98;81.03;95876.09;5093379;28;20469;-57
2023/07/10 05:26:11;;;;;;;0.50;0.30;;;;;;;21.90;80.64;95868.84;5093341;28;21013;-58
2023/07/10 05:28:39;;;;;;;0.50;0.40;;;;;;;21.81;77.49;95878.06;5093007;28;20444;-57
2023/07/10 05:31:10;;;;;;;0.40;0.40;;;;;;;21.92;76.60;95876.59;5092568;28;20506;-57
2023/07/10 05:33:40;;;;;;;0.40;0.30;;;;;;;22.21;75.36;95875.78;5092042;28;20545;-57
2023/07/10 05:36:13;;;;;;;0.47;0.30;;;;;;;22.42;76.53;95866.53;5092542;28;20871;-56
2023/07/10 05:38:42;;;;;;;1.70;0.50;;;;;;;22.44;74.65;95872.41;5093134;28;20510;-56
2023/07/10 05:41:10;;;;;;;0.50;0.30;;;;;;;22.59;72.84;95871.78;5092764;28;20441;-56
2023/07/10 05:43:39;;;;;;;0.60;0.40;;;;;;;22.73;76.71;95875.03;5092811;28;20498;-56
2023/07/10 05:46:08;;;;;;;1.13;1.10;;;;;;;22.27;78.69;95877.16;5093094;28;20440;-56
2023/07/10 05:48:37;;;;;;;1.30;1.20;;;;;;;22.33;89.32;95863.13;5092698;28;20441;-56
2023/07/10 05:51:06;;;;;;;1.33;1.23;;;;;;;22.62;81.59;95876.56;5092788;28;20444;-56
2023/07/10 05:53:35;;;;;;;1.13;1.07;;;;;;;22.80;87.63;95876.41;5091677;28;20479;-56
2023/07/10 05:56:04;;;;;;;0.67;0.67;;;;;;;23.47;87.26;95876.03;5092691;28;20441;-56
2023/07/10 05:58:35;;;;;;;0.60;0.60;;;;;;;22.91;83.65;95856.75;5091891;28;20480;-56
2023/07/10 06:01:04;;;;;;;4.50;1.10;;;;;;;23.56;84.78;95872.06;5092385;28;20436;-56
2023/07/10 06:03:34;;;;;;;0.50;0.40;;;;;;;23.83;83.10;95865.97;5092554;28;20804;-55
2023/07/10 06:06:04;;;;;;;0.43;0.40;;;;;;;24.02;83.31;95860.75;5092599;28;20437;-55
2023/07/10 06:08:36;;;;;;;0.70;0.63;;;;;;;23.68;77.67;95866.66;5091963;28;20891;-55
2023/07/10 06:11:06;;;;;;;3.33;1.03;;;;;;;23.51;75.85;95872.28;5092851;28;20461;-55
2023/07/10 06:13:35;;;;;;;0.80;0.80;;;;;;;23.89;88.02;95861.13;5092355;28;20560;-55
2023/07/10 06:16:06;;;;;;;0.73;0.73;;;;;;;24.64;77.58;95851.38;5091946;28;21012;-55
2023/07/10 06:18:36;;;;;;;9.73;0.70;;;;;;;24.61;74.84;95854.75;5092346;28;20850;-54
2023/07/10 06:21:05;;;;;;;0.50;0.50;;;;;;;24.83;74.10;95862.38;5091444;28;20436;-54
2023/07/10 06:23:35;;;;;;;1.13;1.13;;;;;;;25.15;70.73;95852.34;5092078;28;20491;-54
2023/07/10 06:26:04;;;;;;;1.93;1.83;;;;;;;24.75;66.67;95827.22;5091404;28;21078;-54
2023/07/10 06:28:34;;;;;;;0.90;0.77;;;;;;;25.11;74.16;95849.56;5087589;28;20434;-53
2023/07/10 06:31:05;;;;;;;0.50;0.50;;;;;;;25.48;72.11;95855.53;5086658;28;20441;-53
2023/07/10 06:33:34;;;;;;;0.57;0.53;;;;;;;25.27;69.01;95841.44;5091967;28;20958;-53
2023/07/10 06:36:04;;;;;;;1.10;1.07;;;;;;;25.06;69.16;95852.53;5091756;28;20444;-53
2023/07/10 06:38:34;;;;;;;0.53;0.53;;;;;;;24.80;67.17;95844.06;5092080;28;20517;-54
2023/07/10 06:41:05;;;;;;;0.83;0.73;;;;;;;25.43;66.59;95847.63;5091623;28;20473;-59
2023/07/10 06:43:35;;;;;;;1.50;0.83;;;;;;;25.43;65.84;95850.34;5091970;28;20441;-59
2023/07/10 06:46:03;;;;;;;0.50;0.30;;;;;;;25.67;65.72;95854.84;5091404;28;20933;-59
2023/07/10 06:48:33;;;;;;;1.30;1.20;;;;;;;25.65;64.40;95848.97;5091954;28;20436;-58
2023/07/10 06:51:01;;;;;;;1.50;1.40;;;;;;;25.73;63.02;95845.25;5091350;28;20444;-58
2023/07/10 06:53:30;;;;;;;0.43;0.33;;;;;;;26.65;65.29;95841.84;5091517;28;20468;-59
2023/07/10 06:56:01;;;;;;;0.83;0.40;;;;;;;27.22;60.12;95841.00;5091403;28;20449;-58
2023/07/10 06:58:32;;;;;;;0.90;0.90;;;;;;;26.16;58.43;95839.66;5090079;28;20498;-59
2023/07/10 07:01:01;;;;;;;0.50;0.50;;;;;;;26.76;61.79;95846.38;5091448;28;20472;-60
2023/07/10 07:03:30;;;;;;;0.50;0.40;;;;;;;27.26;59.47;95831.75;5091610;28;20451;-60
2023/07/10 07:05:59;;;;;;;0.70;0.70;;;;;;;27.35;64.30;95832.28;5091864;28;20936;-59
2023/07/10 07:08:27;;;;;;;0.60;0.50;;;;;;;27.52;61.07;95829.09;5091548;28;20436;-58
2023/07/10 07:10:55;;;;;;;0.63;0.40;;;;;;;27.87;56.96;95826.13;5091789;28;20528;-58
2023/07/10 07:13:25;;;;;;;0.97;0.97;;;;;;;27.31;56.22;95822.47;5091126;28;20858;-57
2023/07/10 07:15:55;;;;;;;0.63;0.63;;;;;;;27.31;56.98;95820.53;5091542;28;20435;-57
2023/07/10 07:18:25;;;;;;;4.00;0.60;;;;;;;28.01;53.99;95814.66;5091132;28;20440;-58
2023/07/10 07:20:56;;;;;;;0.50;0.50;;;;;;;28.61;53.05;95810.81;5091210;28;20478;-58
2023/07/10 07:23:25;;;;;;;0.60;0.60;;;;;;;28.74;53.04;95812.09;5090935;28;20429;-57
2023/07/10 07:25:54;;;;;;;0.50;0.37;;;;;;;29.00;54.48;95810.41;5091467;28;20443;-57
2023/07/10 07:28:23;;;;;;;0.60;0.60;;;;;;;28.50;54.31;95801.69;5091287;28;20790;-58
2023/07/10 07:30:53;;;;;;;0.57;0.53;;;;;;;28.46;54.80;95803.59;5091006;28;21006;-58
2023/07/10 07:33:21;;;;;;;6.33;1.00;;;;;;;27.99;51.55;95803.31;5091613;28;20440;-58
2023/07/10 07:35:50;;;;;;;0.87;0.87;;;;;;;27.66;53.41;95804.81;5091141;28;20529;-58
2023/07/10 07:38:18;;;;;;;0.80;0.80;;;;;;;28.09;54.04;95795.31;5090908;28;20924;-57
2023/07/10 07:40:46;;;;;;;1.07;0.97;;;;;;;27.85;52.96;95790.28;5091080;28;20436;-57
2023/07/10 07:43:15;;;;;;;0.60;0.50;;;;;;;28.56;55.60;95796.69;5091303;28;20949;-58
2023/07/10 07:45:51;;;;;;;0.70;0.70;;;;;;;29.50;52.31;95793.31;5090578;28;20505;-58
2023/07/10 07:48:21;;;;;;;0.67;0.43;;;;;;;29.82;50.98;95791.66;5079888;28;20437;-58
2023/07/10 07:50:57;;;;;;;0.60;0.60;;;;;;;30.22;49.02;95779.75;5089789;28;20803;-58
2023/07/10 07:53:26;;;;;;;1.60;0.63;;;;;;;29.98;48.85;95778.47;5090924;28;20447;-59
2023/07/10 07:55:54;;;;;;;0.90;0.90;;;;;;;29.34;49.88;95776.44;5064984;28;20845;-58
2023/07/10 07:58:23;;;;;;;0.40;0.30;;;;;;;29.94;48.25;95771.41;5093503;28;20525;-58
2023/07/10 08:00:51;;;;;;;4.73;1.00;;;;;;;29.67;48.58;95767.31;5094737;28;20440;-58
2023/07/10 08:03:21;;;;;;;2.43;0.50;;;;;;;29.95;47.88;95762.84;5094803;28;20520;-58
2023/07/10 08:05:50;;;;;;;1.80;1.70;;;;;;;29.52;47.50;95756.28;5094786;28;20442;-58
2023/07/10 08:08:19;;;;;;;0.60;0.60;;;;;;;29.89;48.72;95772.56;5091463;28;20578;-58
2023/07/10 08:10:49;;;;;;;0.30;0.30;;;;;;;30.55;47.83;95759.59;5084142;28;20429;-58
2023/07/10 08:13:19;;;;;;;0.60;0.60;;;;;;;30.49;47.73;95750.97;5094280;28;20440;-59
2023/07/10 08:15:48;;;;;;;0.40;0.40;;;;;;;31.26;45.78;95744.88;5094433;28;20490;-60
2023/07/10 08:18:16;;;;;;;1.23;0.70;;;;;;;30.99;46.88;95738.22;5093445;28;20476;-60
2023/07/10 08:20:46;;;;;;;0.50;0.43;;;;;;;30.95;44.26;95731.16;5094112;28;20457;-60
2023/07/10 08:23:14;;;;;;;0.50;0.30;;;;;;;30.36;45.96;95736.06;5094708;28;20440;-60
2023/07/10 08:25:43;;;;;;;0.40;0.40;;;;;;;30.79;44.78;95740.50;5094145;28;20462;-60
2023/07/10 08:28:11;;;;;;;0.67;0.30;;;;;;;31.37;45.74;95728.44;5094048;28;20468;-60
2023/07/10 08:30:39;;;;;;;0.50;0.40;;;;;;;31.04;46.63;95731.56;5094402;28;20879;-60
2023/07/10 08:33:07;;;;;;;1.20;1.10;;;;;;;30.85;45.70;95721.72;5068181;28;20982;-60
2023/07/10 08:35:36;;;;;;;0.90;0.60;;;;;;;31.04;44.53;95728.84;5094178;28;20528;-59
2023/07/10 08:38:06;;;;;;;0.83;0.83;;;;;;;30.83;45.08;95724.09;5094270;28;20531;-60
2023/07/10 08:40:36;;;;;;;1.07;1.03;;;;;;;31.39;44.42;95720.59;5093854;28;20440;-61
2023/07/10 08:43:16;;;;;;;0.70;0.67;;;;;;;30.23;44.70;95693.84;5094389;28;20440;-61
2023/07/10 08:45:48;;;;;;;0.63;0.63;;;;;;;30.75;44.81;95717.81;5093395;28;20493;-60
2023/07/10 08:48:26;;;;;;;0.40;0.40;;;;;;;31.91;42.59;95705.25;5094309;28;20937;-61
2023/07/10 08:51:00;;;;;;;0.77;0.77;;;;;;;32.27;42.61;95714.94;5093145;28;20436;-59
2023/07/10 08:53:32;;;;;;;0.53;0.43;;;;;;;32.20;43.21;95712.22;5093873;28;20444;-59
2023/07/10 08:56:08;;;;;;;0.60;0.50;;;;;;;32.31;44.04;95709.44;5068569;28;20522;-60
2023/07/10 08:58:39;;;;;;;1.20;0.90;;;;;;;32.44;43.23;95697.59;5093047;28;20478;-59
2023/07/10 09:01:15;;;;;;;2.00;1.10;;;;;;;31.70;40.37;95706.06;5093687;28;20487;-59
2023/07/10 09:03:47;;;;;;;1.23;0.70;;;;;;;31.67;41.52;95706.88;5093044;28;20927;-59
2023/07/10 09:06:20;;;;;;;0.57;0.57;;;;;;;32.59;40.46;95699.09;5093295;28;20475;-58
2023/07/10 09:08:53;;;;;;;0.73;0.73;;;;;;;32.53;40.26;95692.50;5093563;28;20774;-58
2023/07/10 09:11:23;;;;;;;0.40;0.30;;;;;;;32.39;40.40;95692.53;5093564;28;20439;-60
2023/07/10 09:13:58;;;;;;;0.40;0.40;;;;;;;32.92;40.46;95691.41;5093764;28;20462;-60
2023/07/10 09:16:27;;;;;;;0.47;0.47;;;;;;;33.19;39.53;95687.69;5093376;28;20569;-59
2023/07/10 09:19:01;;;;;;;0.50;0.40;;;;;;;33.08;41.01;95689.75;5093178;28;20519;-59
2023/07/10 09:21:31;;;;;;;0.90;0.90;;;;;;;33.32;38.96;95687.97;5092442;28;20978;-60
2023/07/10 09:24:01;;;;;;;3.17;0.70;;;;;;;33.21;39.75;95684.56;5093434;28;20513;-59
2023/07/10 09:26:32;;;;;;;0.87;0.50;;;;;;;33.35;39.96;95681.66;5093150;28;20442;-64
2023/07/10 09:29:19;;;;;;;0.70;0.70;;;;;;;33.56;39.33;95681.50;5092595;28;20530;-64
2023/07/10 09:31:51;;;;;;;0.50;0.40;;;;;;;34.04;40.00;95678.59;5094041;28;20447;-62
2023/07/10 09:34:22;;;;;;;0.90;0.90;;;;;;;33.82;40.75;95669.03;5093731;28;20453;-62
2023/07/10 09:36:51;;;;;;;0.70;0.40;;;;;;;34.22;39.12;95675.66;5093150;28;20514;-62
2023/07/10 09:39:21;;;;;;;0.50;0.50;;;;;;;34.18;39.56;95678.44;5093298;28;20439;-62
2023/07/10 09:41:49;;;;;;;8.43;0.80;;;;;;;32.98;40.15;95678.84;5092905;28;20859;-63
2023/07/10 09:44:20;;;;;;;0.50;0.50;;;;;;;34.15;39.13;95676.53;5092807;28;20549;-62
2023/07/10 09:46:49;;;;;;;0.60;0.60;;;;;;;34.99;39.90;95666.28;5092965;28;20486;-62
2023/07/10 09:49:21;;;;;;;0.40;0.30;;;;;;;35.04;39.08;95663.06;5092975;28;20446;-62
2023/07/10 09:51:57;;;;;;;0.43;0.40;;;;;;;35.09;39.25;95661.84;5092924;28;20435;-61
2023/07/10 09:54:36;;;;;;;1.00;0.80;;;;;;;34.32;39.59;95664.50;5068715;28;20443;-62
2023/07/10 09:57:11;;;;;;;0.73;0.57;;;;;;;34.23;39.78;95657.97;5092584;28;20483;-62
2023/07/10 09:59:39;;;;;;;0.83;0.83;;;;;;;33.57;40.06;95654.78;5092329;28;20474;-61
2023/07/10 10:02:19;;;;;;;0.67;0.63;;;;;;;34.52;39.64;95641.81;5092253;28;20443;-62
2023/07/10 10:04:53;;;;;;;1.20;1.20;;;;;;;34.62;39.01;95649.16;5092440;28;20435;-59
2023/07/10 10:07:22;;;;;;;2.20;0.70;;;;;;;34.89;40.65;95639.69;5080088;28;21218;-59
2023/07/10 10:10:16;;;;;;;1.10;1.00;;;;;;;34.41;38.91;95634.50;5092335;28;20451;-59
2023/07/10 10:12:49;;;;;;;0.70;0.70;;;;;;;35.01;38.36;95630.84;5092009;28;20448;-59
2023/07/10 10:15:26;;;;;;;0.50;0.40;;;;;;;34.86;39.30;95624.00;5091716;28;20518;-59
2023/07/10 10:18:01;;;;;;;0.50;0.50;;;;;;;35.05;36.70;95626.06;5091340;28;20626;-58
2023/07/10 10:20:34;;;;;;;0.50;0.50;;;;;;;34.98;37.29;95622.63;5079990;28;20204;-58
2023/07/10 10:23:12;;;;;;;0.50;0.40;;;;;;;35.41;37.35;95614.41;5092142;28;20189;-58
2023/07/10 10:25:46;;;;;;;0.40;0.30;;;;;;;35.62;37.40;95608.53;5092044;28;20454;-59
2023/07/10 10:28:24;;;;;;;0.60;0.57;;;;;;;34.84;36.93;95614.63;5092045;28;20566;-59
2023/07/10 10:30:58;;;;;;;0.43;0.43;;;;;;;35.34;36.69;95603.53;5091699;28;20570;-58
2023/07/10 10:33:36;;;;;;;0.60;0.60;;;;;;;34.74;35.83;95588.78;5092397;28;20200;-59
2023/07/10 10:36:18;;;;;;;0.40;0.30;;;;;;;35.29;34.37;95588.25;5091867;28;20300;-59
2023/07/10 10:38:54;;;;;;;0.40;0.40;;;;;;;35.07;34.44;95598.09;5091992;28;20201;-58
2023/07/10 10:41:41;;;;;;;0.50;0.40;;;;;;;34.71;35.94;95589.59;5065891;28;20197;-58
2023/07/10 10:44:18;;;;;;;1.57;0.77;;;;;;;34.19;36.07;95589.22;5091937;28;20193;-59
2023/07/10 10:46:59;;;;;;;1.17;1.03;;;;;;;33.46;33.79;95588.91;5092055;28;20657;-59
2023/07/10 10:49:48;;;;;;;0.40;0.40;;;;;;;34.75;32.33;95587.59;5064850;28;20677;-59
2023/07/10 10:52:31;;;;;;;1.10;0.50;;;;;;;34.30;32.03;95583.56;5091286;28;20238;-59
2023/07/10 10:55:21;;;;;;;0.40;0.40;;;;;;;34.14;31.95;95577.88;5092191;28;20240;-59
2023/07/10 10:57:59;;;;;;;0.50;0.30;;;;;;;34.67;32.28;95586.16;5068458;28;20225;-59
2023/07/10 11:00:53;;;;;;;0.70;0.40;;;;;;;34.89;32.47;95581.84;5091668;28;20185;-59
2023/07/10 11:03:29;;;;;;;0.40;0.30;;;;;;;35.82;34.45;95576.19;5090841;28;20435;-58
2023/07/10 11:06:02;;;;;;;0.43;0.37;;;;;;;35.75;31.42;95579.09;5092264;28;20280;-58
2023/07/10 11:08:38;;;;;;;0.50;0.40;;;;;;;36.15;32.24;95568.81;5090404;28;20676;-58
2023/07/10 11:11:19;;;;;;;0.40;0.30;;;;;;;36.23;32.67;95553.66;5091379;28;20223;-57
2023/07/10 11:13:49;;;;;;;10.73;0.70;;;;;;;35.54;30.99;95574.03;5091248;28;20201;-57
2023/07/10 11:16:18;;;;;;;0.40;0.40;;;;;;;34.80;30.64;95570.59;5091473;28;20213;-57
2023/07/10 11:18:47;;;;;;;0.50;0.43;;;;;;;35.16;31.39;95570.78;5091627;28;20196;-59
2023/07/10 11:21:16;;;;;;;0.50;0.50;;;;;;;35.68;32.71;95565.44;5090735;28;20677;-59
2023/07/10 11:23:49;;;;;;;0.50;0.40;;;;;;;35.43;32.27;95554.09;5091846;28;20267;-59
2023/07/10 11:26:21;;;;;;;0.50;0.50;;;;;;;35.72;30.91;95553.13;5090839;28;20688;-58
2023/07/10 11:28:53;;;;;;;0.40;0.37;;;;;;;35.75;32.33;95554.25;5091775;28;20198;-58
2023/07/10 11:31:41;;;;;;;0.40;0.40;;;;;;;36.53;30.82;95541.53;5091068;28;20189;-59
2023/07/10 11:34:39;;;;;;;0.40;0.30;;;;;;;36.29;29.96;95546.41;5095384;28;20193;-58
2023/07/10 11:37:34;;;;;;;0.57;0.40;;;;;;;36.85;30.31;95544.28;5095107;28;20213;-59
2023/07/10 11:40:35;;;;;;;0.60;0.60;;;;;;;35.94;30.30;95536.91;5095361;28;20205;-59
2023/07/10 11:43:52;;;;;;;0.40;0.40;;;;;;;36.69;31.70;95524.94;5094766;28;20242;-58
2023/07/10 11:46:30;;;;;;;0.30;0.30;;;;;;;37.15;30.31;95526.53;5095459;28;20630;-59
2023/07/10 11:49:19;;;;;;;0.50;0.40;;;;;;;36.81;30.07;95521.50;5088733;28;20283;-58
2023/07/10 11:52:11;;;;;;;0.50;0.50;;;;;;;36.80;32.33;95517.16;5095375;28;20201;-58
2023/07/10 11:54:40;;;;;;;1.80;0.90;;;;;;;34.97;31.78;95525.41;5075040;28;20194;-58